Time;durP1;ratioP1;P1;durP2;ratioP2;P2;SDS_P1;SDS_P2;PMS_P1;PMS_P2;Temp;Humidity;BMP_temperature;BMP_pressure;BME280_temperature;BME280_humidity;BME280_pressure;Samples;Min_cycle;Max_cycle;Signal;HPM_P1;HPM_P2
2021/07/31 00:02:22;;;;;;;4.97;4.78;;;;;;;16.40;61.06;100255.25;4375684;32;20069;-66
2021/07/31 00:04:49;;;;;;;4.80;4.60;;;;;;;16.38;60.91;100256.31;4387985;32;20073;-65
2021/07/31 00:07:14;;;;;;;6.55;6.25;;;;;;;15.99;61.59;100203.91;4385962;32;20073;-65
2021/07/31 00:09:40;;;;;;;5.00;4.80;;;;;;;16.29;61.97;100260.59;4382811;32;20804;-65
2021/07/31 00:12:05;;;;;;;4.97;4.78;;;;;;;16.24;61.74;100260.97;4388621;32;20079;-65
2021/07/31 00:14:31;;;;;;;4.90;4.70;;;;;;;16.16;62.42;100266.06;4390233;32;20426;-65
2021/07/31 00:16:57;;;;;;;5.10;4.90;;;;;;;16.16;62.89;100268.72;4388157;32;20085;-65
2021/07/31 00:19:22;;;;;;;4.82;4.62;;;;;;;16.18;62.35;100266.78;4394391;32;20080;-65
2021/07/31 00:21:48;;;;;;;4.90;4.70;;;;;;;16.07;62.84;100250.94;4393716;32;20061;-64
2021/07/31 00:24:13;;;;;;;6.90;6.60;;;;;;;14.67;62.29;100014.56;4383029;32;20564;-65
2021/07/31 00:26:38;;;;;;;5.07;4.87;;;;;;;16.22;62.99;100272.66;4375535;32;20066;-65
2021/07/31 00:29:04;;;;;;;4.80;4.60;;;;;;;16.24;62.21;100268.09;4396879;32;20081;-66
2021/07/31 00:31:29;;;;;;;5.00;4.80;;;;;;;16.26;62.68;100261.69;4389215;32;20671;-65
2021/07/31 00:33:54;;;;;;;4.80;4.60;;;;;;;16.27;62.12;100263.34;4391172;32;20084;-65
2021/07/31 00:36:20;;;;;;;6.43;6.12;;;;;;;16.34;62.05;100275.13;4387132;32;20077;-65
2021/07/31 00:38:45;;;;;;;5.00;4.80;;;;;;;16.42;62.81;100263.06;4387233;32;20139;-65
2021/07/31 00:41:10;;;;;;;4.80;4.60;;;;;;;16.45;62.13;100257.50;4383729;32;20080;-65
2021/07/31 00:43:36;;;;;;;4.90;4.70;;;;;;;16.52;61.86;100256.03;4391218;32;20093;-64
2021/07/31 00:46:01;;;;;;;4.80;4.60;;;;;;;16.57;62.01;100260.94;4381451;32;20088;-64
2021/07/31 00:48:26;;;;;;;4.87;4.68;;;;;;;16.60;62.00;100256.22;4382516;32;20091;-65
2021/07/31 00:50:52;;;;;;;5.10;4.80;;;;;;;16.65;61.50;100267.25;4394061;32;20088;-65
2021/07/31 00:53:17;;;;;;;6.45;6.15;;;;;;;16.75;61.11;100264.66;4383256;32;20087;-64
2021/07/31 00:55:43;;;;;;;4.90;4.70;;;;;;;16.77;60.76;100257.41;4385016;32;20100;-65
2021/07/31 00:58:08;;;;;;;5.00;4.80;;;;;;;16.60;61.29;100228.88;4391112;32;20069;-64
2021/07/31 01:00:34;;;;;;;4.90;4.70;;;;;;;16.78;61.16;100255.59;4386537;32;20068;-64
2021/07/31 01:02:59;;;;;;;5.12;4.82;;;;;;;16.78;61.81;100263.56;4381458;32;20061;-65
2021/07/31 01:05:25;;;;;;;5.10;4.90;;;;;;;16.77;61.90;100260.06;4380147;32;20069;-65
2021/07/31 01:07:50;;;;;;;4.72;4.53;;;;;;;16.67;61.14;100244.09;4395289;32;20096;-64
2021/07/31 01:10:15;;;;;;;4.70;4.50;;;;;;;16.74;61.52;100263.00;4384845;32;20165;-64
2021/07/31 01:12:41;;;;;;;4.97;4.78;;;;;;;16.71;61.07;100264.06;4384815;32;20069;-65
2021/07/31 01:15:07;;;;;;;5.47;5.22;;;;;;;16.37;61.86;100223.72;4390413;32;20677;-66
2021/07/31 01:17:32;;;;;;;4.87;4.68;;;;;;;16.52;62.20;100258.69;4401031;32;20075;-64
2021/07/31 01:19:57;;;;;;;4.68;4.47;;;;;;;16.40;63.00;100270.28;4394586;32;20057;-64
2021/07/31 01:22:23;;;;;;;5.30;5.10;;;;;;;16.32;63.26;100263.00;4378717;32;20068;-64
2021/07/31 01:24:48;;;;;;;4.72;4.53;;;;;;;16.25;63.59;100273.22;4392914;32;20073;-65
2021/07/31 01:27:13;;;;;;;6.25;5.95;;;;;;;15.97;63.90;100250.84;4376377;32;20151;-65
2021/07/31 01:29:39;;;;;;;4.90;4.70;;;;;;;15.77;64.34;100210.13;4398561;32;20496;-64
2021/07/31 01:32:05;;;;;;;4.93;4.72;;;;;;;16.09;63.54;100265.72;4397115;32;20793;-64
2021/07/31 01:34:30;;;;;;;4.95;4.75;;;;;;;16.05;64.54;100266.94;4376579;32;20689;-65
2021/07/31 01:36:55;;;;;;;4.80;4.60;;;;;;;16.04;64.71;100259.97;4394520;32;20152;-65
2021/07/31 01:39:21;;;;;;;4.80;4.60;;;;;;;15.73;64.33;100214.84;4400719;32;20076;-65
2021/07/31 01:41:49;;;;;;;4.90;4.70;;;;;;;16.13;64.23;100271.59;4389010;32;20673;-65
2021/07/31 01:44:14;;;;;;;7.40;7.10;;;;;;;16.20;63.79;100270.16;4386517;32;20220;-66
2021/07/31 01:46:40;;;;;;;5.15;4.95;;;;;;;16.31;63.87;100270.06;4396278;32;20096;-65
2021/07/31 01:49:05;;;;;;;5.47;5.25;;;;;;;16.35;63.17;100278.63;4389766;32;20072;-66
2021/07/31 01:51:30;;;;;;;4.78;4.57;;;;;;;16.38;63.88;100277.50;4390923;32;21121;-64
2021/07/31 01:53:58;;;;;;;4.93;4.72;;;;;;;16.40;63.09;100272.91;4390316;32;20058;-64
2021/07/31 01:56:23;;;;;;;4.85;4.65;;;;;;;16.40;63.52;100278.22;4382499;32;20105;-65
2021/07/31 01:58:49;;;;;;;4.85;4.65;;;;;;;16.40;63.17;100271.13;4390287;32;20598;-65
2021/07/31 02:01:14;;;;;;;5.00;4.80;;;;;;;16.40;64.00;100264.97;4388747;32;20072;-64
2021/07/31 02:03:39;;;;;;;4.80;4.60;;;;;;;16.42;63.17;100276.31;4379113;32;20085;-65
2021/07/31 02:06:05;;;;;;;5.35;5.12;;;;;;;15.37;62.95;100107.56;4393117;32;20092;-65
2021/07/31 02:08:30;;;;;;;5.00;4.80;;;;;;;16.45;63.58;100262.78;4389922;32;20535;-65
2021/07/31 02:10:56;;;;;;;4.85;4.65;;;;;;;16.46;62.90;100272.44;4383163;32;20061;-65
2021/07/31 02:13:21;;;;;;;4.70;4.50;;;;;;;16.45;63.49;100265.44;4394997;32;20602;-65
2021/07/31 02:15:46;;;;;;;4.78;4.57;;;;;;;16.46;63.46;100264.50;4387713;32;20074;-65
2021/07/31 02:18:12;;;;;;;6.72;6.35;;;;;;;16.50;63.85;100263.25;4381268;32;20099;-66
2021/07/31 02:20:38;;;;;;;4.78;4.57;;;;;;;16.52;63.27;100253.38;4381708;32;20314;-64
2021/07/31 02:23:03;;;;;;;4.90;4.70;;;;;;;16.55;62.84;100255.75;4392947;32;20173;-66
2021/07/31 02:25:29;;;;;;;4.72;4.53;;;;;;;16.52;63.30;100253.38;4378551;32;20314;-64
2021/07/31 02:27:54;;;;;;;4.65;4.45;;;;;;;16.53;63.20;100249.75;4396086;32;20092;-65
2021/07/31 02:30:19;;;;;;;6.37;6.07;;;;;;;16.39;62.02;100220.94;4367352;32;20075;-65
2021/07/31 02:32:45;;;;;;;4.65;4.45;;;;;;;16.54;62.91;100248.78;4375226;32;20071;-65
2021/07/31 02:35:11;;;;;;;6.12;5.82;;;;;;;16.50;62.90;100252.66;4389440;32;20080;-65
2021/07/31 02:37:36;;;;;;;4.90;4.70;;;;;;;16.45;62.71;100252.19;4381637;32;20112;-65
2021/07/31 02:40:02;;;;;;;4.78;4.57;;;;;;;16.41;63.04;100250.78;4381498;32;20069;-65
2021/07/31 02:42:27;;;;;;;4.80;4.60;;;;;;;16.39;62.43;100258.00;4393153;32;20085;-65
2021/07/31 02:44:53;;;;;;;4.78;4.57;;;;;;;16.30;62.93;100255.16;4390730;32;20119;-64
2021/07/31 02:47:18;;;;;;;6.43;6.12;;;;;;;16.31;62.95;100254.19;4374824;32;20491;-65
2021/07/31 02:49:43;;;;;;;4.70;4.50;;;;;;;16.33;62.60;100254.91;4394073;32;20138;-64
2021/07/31 02:52:09;;;;;;;4.70;4.50;;;;;;;16.37;62.88;100254.66;4389740;32;20073;-64
2021/07/31 02:54:34;;;;;;;4.82;4.62;;;;;;;16.32;62.60;100252.41;4393334;32;20112;-65
2021/07/31 02:57:00;;;;;;;4.70;4.50;;;;;;;15.79;62.79;100171.16;4395909;32;20091;-64
2021/07/31 02:59:25;;;;;;;4.82;4.62;;;;;;;16.21;63.61;100250.63;4386883;32;20900;-64
2021/07/31 03:01:50;;;;;;;5.03;4.72;;;;;;;16.12;63.27;100248.75;4383910;32;20100;-65
2021/07/31 03:04:16;;;;;;;6.35;6.05;;;;;;;15.90;64.44;100231.16;4373155;32;20084;-64
2021/07/31 03:06:41;;;;;;;5.00;4.80;;;;;;;15.89;64.18;100248.00;4392601;32;20100;-64
2021/07/31 03:09:07;;;;;;;5.57;5.35;;;;;;;15.84;64.85;100243.09;4393453;32;20086;-65
2021/07/31 03:11:32;;;;;;;4.62;4.43;;;;;;;15.82;65.25;100239.72;4379440;32;20084;-64
2021/07/31 03:13:57;;;;;;;4.85;4.65;;;;;;;15.72;64.78;100229.03;4394688;32;20910;-64
2021/07/31 03:16:23;;;;;;;5.40;5.20;;;;;;;15.66;64.80;100196.94;4389949;32;20169;-64
2021/07/31 03:18:48;;;;;;;5.07;4.87;;;;;;;15.94;64.15;100238.72;4385637;32;20060;-64
2021/07/31 03:21:13;;;;;;;6.45;6.15;;;;;;;15.62;64.87;100184.94;4385933;32;20088;-65
2021/07/31 03:23:39;;;;;;;4.95;4.75;;;;;;;15.59;64.91;100162.19;4385826;32;20180;-65
2021/07/31 03:26:04;;;;;;;4.70;4.50;;;;;;;15.98;65.29;100220.78;4377026;32;20089;-64
2021/07/31 03:28:30;;;;;;;5.10;4.90;;;;;;;15.00;64.62;100078.03;4394407;32;20081;-64
2021/07/31 03:30:55;;;;;;;4.90;4.70;;;;;;;15.89;65.37;100230.28;4386514;32;20136;-64
2021/07/31 03:33:21;;;;;;;6.45;6.15;;;;;;;15.80;65.00;100222.31;4379540;32;20070;-64
2021/07/31 03:35:46;;;;;;;5.05;4.75;;;;;;;15.72;65.45;100228.19;4386678;32;20084;-65
2021/07/31 03:38:12;;;;;;;6.20;5.90;;;;;;;15.69;65.84;100234.53;4384857;32;20077;-64
2021/07/31 03:40:37;;;;;;;4.80;4.60;;;;;;;15.72;66.28;100241.41;4391533;32;20200;-65
2021/07/31 03:43:03;;;;;;;5.03;4.78;;;;;;;15.68;66.11;100238.16;4380958;32;20053;-64
2021/07/31 03:45:28;;;;;;;4.87;4.68;;;;;;;15.74;65.84;100234.22;4397288;32;20679;-64
2021/07/31 03:47:53;;;;;;;5.25;4.68;;;;;;;15.78;65.51;100234.81;4386765;32;20069;-65
2021/07/31 03:50:19;;;;;;;4.70;4.50;;;;;;;15.82;65.63;100247.66;4382222;32;20107;-64
2021/07/31 03:52:44;;;;;;;4.90;4.70;;;;;;;15.93;66.22;100252.06;4390963;32;20069;-65
2021/07/31 03:55:10;;;;;;;6.10;5.82;;;;;;;15.97;65.03;100250.00;4382453;32;20057;-65
2021/07/31 03:57:35;;;;;;;5.00;4.80;;;;;;;15.98;65.20;100252.53;4393713;32;20859;-65
2021/07/31 04:00:01;;;;;;;4.80;4.60;;;;;;;16.00;65.20;100247.97;4384593;32;20054;-65
2021/07/31 04:02:26;;;;;;;4.70;4.50;;;;;;;15.93;65.30;100238.84;4393089;32;20065;-64
2021/07/31 04:04:52;;;;;;;4.82;4.62;;;;;;;15.90;66.46;100250.53;4385955;32;20111;-64
2021/07/31 04:07:17;;;;;;;4.72;4.53;;;;;;;15.92;66.12;100260.97;4384382;32;20077;-66
2021/07/31 04:09:43;;;;;;;4.55;4.35;;;;;;;15.97;65.92;100257.94;4388192;32;20093;-66
2021/07/31 04:12:08;;;;;;;6.15;5.85;;;;;;;16.01;66.63;100259.38;4394740;32;20083;-66
2021/07/31 04:14:33;;;;;;;4.80;4.60;;;;;;;16.04;66.37;100261.78;4379409;32;20092;-64
2021/07/31 04:17:00;;;;;;;4.95;4.75;;;;;;;16.06;66.49;100254.56;4398012;32;20449;-65
2021/07/31 04:19:25;;;;;;;4.80;4.60;;;;;;;16.08;66.47;100250.81;4390627;32;20574;-65
2021/07/31 04:21:53;;;;;;;5.22;5.03;;;;;;;16.11;66.95;100258.47;4398771;32;20061;-65
2021/07/31 04:24:19;;;;;;;6.55;6.25;;;;;;;16.12;66.45;100268.13;4375674;32;20124;-65
2021/07/31 04:26:45;;;;;;;5.00;4.80;;;;;;;16.14;66.56;100254.78;4379570;32;20924;-65
2021/07/31 04:29:10;;;;;;;6.05;5.75;;;;;;;16.14;66.86;100254.78;4386841;32;20057;-65
2021/07/31 04:31:35;;;;;;;4.80;4.60;;;;;;;16.14;66.19;100255.59;4379849;32;20085;-65
2021/07/31 04:34:01;;;;;;;4.80;4.60;;;;;;;16.25;66.44;100256.50;4390897;32;20662;-65
2021/07/31 04:36:26;;;;;;;5.30;5.10;;;;;;;16.63;64.56;100258.59;4390817;32;20072;-65
2021/07/31 04:38:52;;;;;;;5.05;4.80;;;;;;;17.21;63.40;100257.25;4389859;32;20434;-65
2021/07/31 04:41:17;;;;;;;4.95;4.75;;;;;;;17.53;62.46;100263.19;4390602;32;20078;-64
2021/07/31 04:43:42;;;;;;;4.80;4.60;;;;;;;17.70;60.74;100263.50;4394249;32;20558;-65
2021/07/31 04:46:08;;;;;;;6.07;5.80;;;;;;;17.88;60.23;100259.28;4392559;32;20132;-66
2021/07/31 04:48:33;;;;;;;4.97;4.78;;;;;;;17.65;61.04;100248.00;4392593;32;20567;-65
2021/07/31 04:51:02;;;;;;;4.90;4.70;;;;;;;17.32;61.67;100260.66;4396763;32;20088;-65
2021/07/31 04:53:28;;;;;;;5.47;5.25;;;;;;;17.27;62.43;100262.84;4390382;32;20072;-66
2021/07/31 04:55:54;;;;;;;4.93;4.72;;;;;;;17.25;62.69;100259.50;4379392;32;20210;-66
2021/07/31 04:58:19;;;;;;;6.43;6.12;;;;;;;17.06;62.84;100257.63;4388711;32;20096;-67
2021/07/31 05:00:46;;;;;;;5.00;4.80;;;;;;;17.08;63.18;100271.56;4382492;32;20080;-65
2021/07/31 05:03:11;;;;;;;4.93;4.72;;;;;;;17.11;63.55;100279.25;4391828;32;20087;-66
2021/07/31 05:05:37;;;;;;;5.03;4.82;;;;;;;17.12;63.00;100277.47;4389585;32;20068;-66
2021/07/31 05:08:02;;;;;;;5.10;4.90;;;;;;;16.98;63.05;100280.44;4390695;32;20088;-66
2021/07/31 05:10:28;;;;;;;5.03;4.82;;;;;;;17.00;63.41;100302.34;4387177;32;20072;-66
2021/07/31 05:12:53;;;;;;;4.82;4.62;;;;;;;16.93;63.30;100283.47;4397149;32;20143;-66
2021/07/31 05:15:18;;;;;;;4.95;4.75;;;;;;;16.91;64.43;100288.06;4387753;32;20077;-65
2021/07/31 05:17:44;;;;;;;5.07;4.87;;;;;;;16.85;64.70;100296.56;4397362;32;20856;-65
2021/07/31 05:20:10;;;;;;;6.18;5.87;;;;;;;16.72;64.71;100291.44;4394256;32;21236;-66
2021/07/31 05:22:35;;;;;;;5.18;4.95;;;;;;;16.78;64.61;100295.34;4389793;32;20470;-65
2021/07/31 05:25:01;;;;;;;4.97;4.78;;;;;;;16.86;64.55;100304.38;4389837;32;20131;-65
2021/07/31 05:27:26;;;;;;;4.80;4.60;;;;;;;16.91;64.15;100298.69;4390115;32;20089;-66
2021/07/31 05:29:51;;;;;;;5.00;4.80;;;;;;;16.74;65.25;100306.22;4392391;32;20085;-65
2021/07/31 05:32:17;;;;;;;6.25;5.95;;;;;;;16.80;64.54;100304.87;4379292;32;20602;-64
2021/07/31 05:34:42;;;;;;;4.80;4.60;;;;;;;16.81;65.47;100308.34;4391902;32;20084;-66
2021/07/31 05:37:07;;;;;;;5.00;4.80;;;;;;;16.81;64.49;100289.81;4376048;32;20069;-66
2021/07/31 05:39:33;;;;;;;5.00;4.80;;;;;;;16.89;64.96;100308.56;4390138;32;20111;-66
2021/07/31 05:42:02;;;;;;;4.90;4.70;;;;;;;16.98;65.28;100305.16;4378771;32;20665;-65
2021/07/31 05:44:28;;;;;;;5.00;4.80;;;;;;;17.02;64.67;100317.16;4386371;32;20073;-65
2021/07/31 05:46:53;;;;;;;4.75;4.55;;;;;;;17.08;64.83;100311.34;4380153;32;20065;-65
2021/07/31 05:49:18;;;;;;;5.40;5.10;;;;;;;17.13;64.50;100319.72;4392237;32;20637;-65
2021/07/31 05:51:44;;;;;;;4.85;4.65;;;;;;;17.41;64.48;100309.38;4394326;32;20088;-65
2021/07/31 05:54:09;;;;;;;6.25;5.95;;;;;;;17.63;62.89;100312.81;4390279;32;20083;-66
2021/07/31 05:56:34;;;;;;;5.30;5.10;;;;;;;17.44;62.68;100308.28;4387892;32;20084;-65
2021/07/31 05:59:00;;;;;;;4.70;4.50;;;;;;;17.48;63.85;100315.84;4385806;32;20081;-64
2021/07/31 06:01:25;;;;;;;4.70;4.50;;;;;;;18.37;59.91;100309.75;4392957;32;20065;-66
2021/07/31 06:03:51;;;;;;;4.85;4.65;;;;;;;18.91;57.89;100315.44;4389855;32;20498;-65
2021/07/31 06:06:16;;;;;;;7.07;6.68;;;;;;;18.98;57.02;100258.03;4383689;32;20065;-65
2021/07/31 06:08:41;;;;;;;5.12;4.93;;;;;;;19.65;55.17;100313.78;4396989;32;20090;-66
2021/07/31 06:11:07;;;;;;;6.03;5.72;;;;;;;20.02;54.78;100319.03;4391789;32;20087;-67
2021/07/31 06:13:32;;;;;;;5.50;5.25;;;;;;;20.49;52.64;100286.00;4372243;32;20453;-65
2021/07/31 06:15:57;;;;;;;5.37;5.18;;;;;;;20.37;53.03;100321.87;4395764;32;20083;-66
2021/07/31 06:18:23;;;;;;;5.65;5.35;;;;;;;19.88;54.99;100319.53;4375549;32;20076;-64
2021/07/31 06:20:49;;;;;;;5.10;4.90;;;;;;;19.13;56.93;100290.34;4402286;32;20073;-66
2021/07/31 06:23:14;;;;;;;6.82;6.53;;;;;;;19.70;55.87;100311.50;4395861;32;20084;-67
2021/07/31 06:25:39;;;;;;;6.62;4.97;;;;;;;19.32;56.67;100313.34;4386765;32;20105;-65
2021/07/31 06:28:05;;;;;;;5.32;5.10;;;;;;;19.07;57.23;100310.38;4391576;32;20072;-64
2021/07/31 06:30:30;;;;;;;5.20;5.00;;;;;;;19.03;57.20;100295.69;4388594;32;20076;-65
2021/07/31 06:32:56;;;;;;;5.10;4.90;;;;;;;18.95;57.92;100319.50;4392609;32;20053;-66
2021/07/31 06:35:21;;;;;;;6.75;6.45;;;;;;;18.61;57.53;100314.63;4384572;32;20127;-65
2021/07/31 06:37:46;;;;;;;4.82;4.62;;;;;;;18.69;58.87;100324.56;4391545;32;20058;-66
2021/07/31 06:40:12;;;;;;;5.15;4.95;;;;;;;18.80;58.30;100321.75;4387007;32;20092;-66
2021/07/31 06:42:37;;;;;;;5.07;4.87;;;;;;;18.99;57.74;100314.75;4392072;32;20069;-65
2021/07/31 06:45:03;;;;;;;5.30;5.10;;;;;;;18.91;57.53;100312.78;4398138;32;20069;-67
2021/07/31 06:47:28;;;;;;;5.20;5.00;;;;;;;19.08;56.63;100320.03;4382408;32;20168;-66
2021/07/31 06:49:54;;;;;;;5.20;5.00;;;;;;;19.11;57.61;100322.37;4390461;32;20069;-65
2021/07/31 06:52:19;;;;;;;6.90;6.55;;;;;;;19.11;57.53;100305.59;4389348;32;20080;-66
2021/07/31 06:54:44;;;;;;;4.80;4.60;;;;;;;18.69;58.52;100330.69;4391051;32;20091;-66
2021/07/31 06:57:10;;;;;;;6.30;6.00;;;;;;;18.70;57.75;100320.91;4373352;32;20073;-65
2021/07/31 06:59:36;;;;;;;5.57;5.28;;;;;;;18.64;59.10;100326.78;4395575;32;20080;-65
2021/07/31 07:02:02;;;;;;;5.30;5.10;;;;;;;18.70;59.37;100331.53;4386720;32;20782;-66
2021/07/31 07:04:27;;;;;;;5.72;5.45;;;;;;;19.15;57.42;100312.31;4383356;32;20094;-66
2021/07/31 07:06:52;;;;;;;6.68;6.37;;;;;;;18.99;56.40;100322.72;4377706;32;20671;-69
2021/07/31 07:09:18;;;;;;;6.62;6.32;;;;;;;18.92;57.37;100331.28;4386279;32;20072;-67
2021/07/31 07:11:43;;;;;;;5.30;5.10;;;;;;;18.66;57.97;100322.16;4374180;32;20080;-68
2021/07/31 07:14:09;;;;;;;5.07;4.87;;;;;;;18.91;58.73;100331.41;4374774;32;20116;-66
2021/07/31 07:16:34;;;;;;;5.20;5.00;;;;;;;18.90;57.94;100319.06;4379771;32;20076;-68
2021/07/31 07:19:00;;;;;;;5.00;4.80;;;;;;;19.04;57.15;100337.25;4390340;32;20595;-68
2021/07/31 07:21:25;;;;;;;5.50;5.30;;;;;;;19.13;58.05;100312.44;4373480;32;20100;-68
2021/07/31 07:23:50;;;;;;;4.90;4.70;;;;;;;19.44;57.62;100336.13;4398910;32;20084;-67
2021/07/31 07:26:16;;;;;;;5.30;5.10;;;;;;;19.64;56.37;100334.22;4394193;32;20074;-67
2021/07/31 07:28:41;;;;;;;5.10;4.90;;;;;;;19.61;55.93;100337.19;4392268;32;20562;-68
2021/07/31 07:31:14;;;;;;;5.20;5.00;;;;;;;19.91;55.19;100343.22;4372646;32;20076;-66
2021/07/31 07:33:39;;;;;;;;;;;;;;;19.78;54.76;100335.56;4385290;32;20871;-69
2021/07/31 07:36:15;;;;;;;5.18;4.97;;;;;;;19.82;55.42;100344.94;4414790;32;20095;-68
2021/07/31 07:38:41;;;;;;;5.20;5.00;;;;;;;19.85;54.33;100343.81;4390632;32;20088;-67
2021/07/31 07:41:07;;;;;;;5.15;4.95;;;;;;;19.85;54.95;100349.16;4392397;32;20069;-67
2021/07/31 07:43:32;;;;;;;5.35;5.12;;;;;;;19.59;55.44;100352.47;4378065;32;20076;-67
2021/07/31 07:45:58;;;;;;;5.25;5.05;;;;;;;19.52;56.02;100349.56;4386558;32;20115;-69
2021/07/31 07:48:23;;;;;;;5.70;5.40;;;;;;;19.62;55.41;100351.31;4395104;32;20062;-69
2021/07/31 07:50:48;;;;;;;5.15;4.95;;;;;;;19.47;55.20;100350.97;4391388;32;20081;-68
2021/07/31 07:53:14;;;;;;;5.10;4.90;;;;;;;19.45;56.27;100356.44;4390889;32;20123;-67
2021/07/31 07:55:39;;;;;;;5.28;4.97;;;;;;;19.44;56.33;100360.06;4395132;32;20139;-70
2021/07/31 07:58:08;;;;;;;5.22;5.03;;;;;;;19.27;56.18;100352.87;4385644;32;20081;-69
2021/07/31 08:00:34;;;;;;;5.43;5.22;;;;;;;19.40;56.67;100361.34;4374080;32;20101;-68
2021/07/31 08:02:59;;;;;;;5.50;5.20;;;;;;;19.85;56.21;100352.66;4384489;32;20065;-67
2021/07/31 08:05:24;;;;;;;5.80;5.50;;;;;;;20.26;55.64;100360.25;4385989;32;20944;-67
2021/07/31 08:07:50;;;;;;;4.93;4.72;;;;;;;20.01;53.85;100336.00;4387245;32;20066;-66
2021/07/31 08:10:15;;;;;;;6.75;6.45;;;;;;;19.84;55.16;100364.28;4374534;32;20066;-66
2021/07/31 08:12:40;;;;;;;5.62;5.32;;;;;;;19.97;54.64;100355.13;4389403;32;20808;-67
2021/07/31 08:15:06;;;;;;;5.10;4.90;;;;;;;20.08;53.66;100358.38;4380265;32;20088;-66
2021/07/31 08:17:32;;;;;;;5.15;4.95;;;;;;;19.96;54.35;100340.94;4386283;32;20066;-66
2021/07/31 08:19:57;;;;;;;5.10;4.90;;;;;;;20.39;54.10;100362.53;4380792;32;20057;-70
2021/07/31 08:22:23;;;;;;;5.60;5.40;;;;;;;20.31;52.61;100270.03;4374904;32;21207;-70
2021/07/31 08:24:48;;;;;;;5.30;5.10;;;;;;;21.18;51.85;100347.50;4371591;32;20081;-68
2021/07/31 08:27:14;;;;;;;5.50;5.20;;;;;;;21.05;51.67;100348.78;4383656;32;20095;-68
2021/07/31 08:29:39;;;;;;;5.18;4.97;;;;;;;20.74;51.69;100348.38;4395762;32;21106;-68
2021/07/31 08:32:05;;;;;;;5.70;5.40;;;;;;;20.68;52.57;100354.31;4392636;32;20073;-69
2021/07/31 08:34:30;;;;;;;5.72;5.43;;;;;;;20.55;52.83;100361.84;4393742;32;20088;-67
2021/07/31 08:37:03;;;;;;;5.35;5.15;;;;;;;20.51;52.41;100334.66;4394608;32;20485;-67
2021/07/31 08:39:28;;;;;;;5.35;5.07;;;;;;;20.36;52.15;100360.19;4370094;32;20086;-67
2021/07/31 08:41:54;;;;;;;5.10;4.90;;;;;;;20.45;53.10;100368.09;4380774;32;20171;-67
2021/07/31 08:44:19;;;;;;;6.85;6.55;;;;;;;20.12;52.48;100354.44;4365499;32;20069;-67
2021/07/31 08:46:45;;;;;;;5.60;5.10;;;;;;;20.09;53.79;100378.72;4392415;32;20080;-67
2021/07/31 08:49:12;;;;;;;6.15;5.85;;;;;;;19.59;55.36;100362.28;4391215;32;20555;-68
2021/07/31 08:51:38;;;;;;;5.30;5.10;;;;;;;19.53;55.71;100380.50;4378426;32;20065;-66
2021/07/31 08:54:03;;;;;;;5.00;4.80;;;;;;;19.60;55.87;100386.06;4379489;32;20141;-69
2021/07/31 08:56:29;;;;;;;5.10;4.90;;;;;;;19.52;56.48;100341.59;4368034;32;20100;-68
2021/07/31 08:58:57;;;;;;;4.97;4.78;;;;;;;20.13;56.18;100387.25;4382229;32;20097;-66
2021/07/31 09:01:24;;;;;;;6.32;5.60;;;;;;;20.71;54.59;100391.38;4383908;32;20333;-68
2021/07/31 09:03:54;;;;;;;5.35;5.07;;;;;;;20.46;54.73;100383.09;4382307;32;20085;-68
2021/07/31 09:06:29;;;;;;;7.53;6.95;;;;;;;19.81;55.23;100308.66;4383679;32;20085;-67
2021/07/31 09:08:55;;;;;;;4.95;4.75;;;;;;;20.76;53.88;100382.87;4388460;32;20234;-67
2021/07/31 09:11:20;;;;;;;6.62;6.32;;;;;;;20.60;53.05;100376.41;4371535;32;20120;-67
2021/07/31 09:13:46;;;;;;;5.30;5.10;;;;;;;20.70;53.04;100368.34;4391947;32;20480;-67
2021/07/31 09:16:11;;;;;;;6.30;6.00;;;;;;;21.04;52.36;100391.62;4398795;32;20141;-67
2021/07/31 09:18:43;;;;;;;5.50;5.20;;;;;;;21.31;52.02;100383.47;4377808;32;20060;-68
2021/07/31 09:21:15;;;;;;;6.70;6.40;;;;;;;21.48;51.82;100371.06;4390875;32;20130;-67
2021/07/31 09:23:48;;;;;;;5.27;5.07;;;;;;;21.70;51.46;100383.00;4389458;32;20098;-68
2021/07/31 09:26:25;;;;;;;6.72;6.43;;;;;;;21.99;50.49;100376.47;4389641;32;20150;-68
2021/07/31 09:29:09;;;;;;;5.10;4.90;;;;;;;21.60;50.01;100393.00;4387932;32;20159;-67
2021/07/31 09:31:39;;;;;;;5.50;5.20;;;;;;;21.70;51.10;100380.34;4391628;32;20078;-66
2021/07/31 09:34:04;;;;;;;5.80;5.50;;;;;;;21.85;49.76;100382.41;4385928;32;20057;-67
2021/07/31 09:36:40;;;;;;;5.55;5.25;;;;;;;21.62;50.44;100387.50;4391486;32;20083;-69
2021/07/31 09:39:06;;;;;;;5.68;5.37;;;;;;;21.75;50.50;100385.22;4391781;32;20126;-68
2021/07/31 09:41:41;;;;;;;5.15;4.95;;;;;;;22.21;50.29;100384.84;4389769;32;20072;-67
2021/07/31 09:44:09;;;;;;;5.75;5.50;;;;;;;22.61;48.89;100376.13;4390407;32;20077;-67
2021/07/31 09:46:51;;;;;;;5.62;5.30;;;;;;;22.33;48.82;100394.28;4421497;32;20421;-67
2021/07/31 09:49:18;;;;;;;6.80;6.50;;;;;;;22.42;46.96;100395.12;4380727;32;20081;-67
2021/07/31 09:51:44;;;;;;;5.10;4.90;;;;;;;21.15;48.51;100222.41;4391654;32;20423;-68
2021/07/31 09:54:11;;;;;;;5.37;5.18;;;;;;;22.42;47.87;100392.47;4401278;32;20119;-67
2021/07/31 09:56:52;;;;;;;5.50;5.30;;;;;;;22.57;46.88;100385.47;4391757;32;20461;-68
2021/07/31 09:59:19;;;;;;;6.55;6.25;;;;;;;22.27;47.83;100392.25;4390797;32;20077;-66
2021/07/31 10:01:49;;;;;;;5.50;5.20;;;;;;;22.22;48.21;100394.56;4389612;32;20472;-68
2021/07/31 10:04:15;;;;;;;6.57;6.28;;;;;;;22.16;48.05;100396.03;4388946;32;20250;-67
2021/07/31 10:06:40;;;;;;;5.60;5.30;;;;;;;22.49;47.68;100390.78;4385391;32;20658;-66
2021/07/31 10:09:06;;;;;;;5.72;5.47;;;;;;;22.49;45.89;100396.13;4377932;32;20412;-68
2021/07/31 10:11:33;;;;;;;5.25;5.05;;;;;;;22.82;46.33;100396.19;4379840;32;20602;-68
2021/07/31 10:14:02;;;;;;;5.15;4.95;;;;;;;23.14;46.35;100400.69;4388993;32;20606;-69
2021/07/31 10:16:28;;;;;;;5.40;5.20;;;;;;;23.23;44.95;100370.25;4381591;32;20611;-68
2021/07/31 10:19:04;;;;;;;5.35;5.15;;;;;;;23.54;45.14;100390.06;4388967;32;20148;-68
2021/07/31 10:21:32;;;;;;;5.32;5.12;;;;;;;23.53;44.89;100388.41;4387896;32;20673;-68
2021/07/31 10:24:04;;;;;;;5.50;5.20;;;;;;;22.82;45.87;100398.84;4388091;32;20077;-68
2021/07/31 10:26:30;;;;;;;5.15;4.95;;;;;;;22.86;46.47;100395.66;4382247;32;20076;-68
2021/07/31 10:29:26;;;;;;;5.40;5.20;;;;;;;21.98;44.32;100289.28;4382583;32;20128;-68
2021/07/31 10:31:52;;;;;;;5.30;5.10;;;;;;;22.87;46.02;100396.50;4400464;32;20073;-68
2021/07/31 10:34:48;;;;;;;6.60;6.30;;;;;;;22.91;44.58;100397.81;4374440;32;20076;-67
2021/07/31 10:37:35;;;;;;;6.60;6.30;;;;;;;21.75;46.49;100251.69;4403607;32;20057;-66
2021/07/31 10:40:03;;;;;;;5.10;4.90;;;;;;;22.47;46.76;100411.50;4411480;32;20076;-67
2021/07/31 10:42:47;;;;;;;5.22;5.03;;;;;;;22.23;46.44;100410.44;4411229;32;20073;-67
2021/07/31 10:45:15;;;;;;;6.78;6.47;;;;;;;22.40;46.61;100411.34;4406401;32;20116;-67
2021/07/31 10:47:40;;;;;;;6.03;5.72;;;;;;;22.73;46.61;100408.69;4410679;32;20105;-72
2021/07/31 10:50:24;;;;;;;5.68;5.43;;;;;;;23.34;45.56;100422.59;4375954;32;20084;-68
2021/07/31 10:52:50;;;;;;;5.50;5.20;;;;;;;23.83;44.28;100405.56;4398059;32;20077;-68
2021/07/31 10:55:15;;;;;;;6.72;6.43;;;;;;;23.69;42.90;100401.72;4388946;32;20065;-68
2021/07/31 10:57:53;;;;;;;5.50;5.30;;;;;;;23.48;43.83;100395.09;4390628;32;20080;-68
2021/07/31 11:00:28;;;;;;;5.20;5.00;;;;;;;23.14;44.22;100398.03;4409115;32;20152;-75
2021/07/31 11:02:54;;;;;;;5.80;5.50;;;;;;;23.73;43.08;100404.91;4414949;32;20060;-72
2021/07/31 11:05:19;;;;;;;6.78;6.47;;;;;;;23.72;43.52;100396.03;4385051;32;20139;-71
2021/07/31 11:07:57;;;;;;;5.40;5.20;;;;;;;23.38;43.51;100410.53;4388574;32;20449;-70
2021/07/31 11:10:43;;;;;;;6.78;6.47;;;;;;;23.63;44.70;100403.28;4410844;32;20573;-69
2021/07/31 11:13:17;;;;;;;5.65;5.40;;;;;;;24.09;42.90;100407.97;4400749;32;20147;-71
2021/07/31 11:16:02;;;;;;;5.30;5.10;;;;;;;24.59;41.56;100393.25;4402646;32;20548;-70
2021/07/31 11:18:33;;;;;;;5.90;5.60;;;;;;;24.96;41.07;100404.22;4408856;32;20123;-72
2021/07/31 11:21:22;;;;;;;5.32;5.10;;;;;;;24.72;40.39;100399.87;4396489;32;20097;-70
2021/07/31 11:23:50;;;;;;;5.43;5.20;;;;;;;24.46;40.87;100403.72;4372227;32;20761;-71